Time;durP1;ratioP1;P1;durP2;ratioP2;P2;SDS_P1;SDS_P2;PMS_P1;PMS_P2;Temp;Humidity;BMP_temperature;BMP_pressure;BME280_temperature;BME280_humidity;BME280_pressure;Samples;Min_cycle;Max_cycle;Signal;HPM_P1;HPM_P2
2023/11/06 00:02:21;;;;;;;1.85;0.50;;;;;;;7.49;100.00;95817.38;5061895;28;20040;-62
2023/11/06 00:04:48;;;;;;;3.13;0.80;;;;;;;7.45;100.00;95827.06;5058854;28;20036;-62
2023/11/06 00:07:15;;;;;;;2.42;0.77;;;;;;;7.28;100.00;95823.59;5064931;28;20052;-62
2023/11/06 00:09:41;;;;;;;1.10;0.63;;;;;;;7.18;100.00;95828.16;5061290;28;20045;-62
2023/11/06 00:12:11;;;;;;;2.70;0.50;;;;;;;7.15;100.00;95832.97;5059668;28;20044;-62
2023/11/06 00:14:37;;;;;;;2.70;0.60;;;;;;;7.06;100.00;95831.06;5060319;28;20062;-62
2023/11/06 00:17:04;;;;;;;4.25;0.88;;;;;;;7.13;100.00;95837.03;5065926;28;20072;-62
2023/11/06 00:19:31;;;;;;;1.73;0.57;;;;;;;7.11;100.00;95833.81;5063424;28;20129;-63
2023/11/06 00:21:57;;;;;;;5.53;1.15;;;;;;;7.16;100.00;95837.28;5064490;28;20032;-62
2023/11/06 00:24:25;;;;;;;3.80;0.88;;;;;;;7.12;100.00;95830.03;5046928;28;20037;-62
2023/11/06 00:26:51;;;;;;;2.85;1.15;;;;;;;7.04;100.00;95834.03;5062714;28;20037;-63
2023/11/06 00:29:18;;;;;;;1.90;0.52;;;;;;;7.12;100.00;95830.03;5067345;28;20040;-62
2023/11/06 00:31:44;;;;;;;7.80;0.90;;;;;;;7.20;100.00;95842.97;5065069;28;20098;-63
2023/11/06 00:34:11;;;;;;;4.95;0.80;;;;;;;7.23;100.00;95842.41;5062822;28;20036;-63
2023/11/06 00:36:38;;;;;;;4.18;0.77;;;;;;;7.16;100.00;95848.03;5057994;28;20048;-62
2023/11/06 00:39:07;;;;;;;2.55;0.73;;;;;;;7.14;100.00;95847.53;5045682;28;20041;-62
2023/11/06 00:41:34;;;;;;;1.85;0.60;;;;;;;7.21;100.00;95849.94;5047427;28;20044;-63
2023/11/06 00:44:00;;;;;;;5.05;1.02;;;;;;;7.19;100.00;95838.63;5048650;28;20059;-63
2023/11/06 00:46:27;;;;;;;2.13;0.60;;;;;;;7.19;100.00;95843.22;5063823;28;20040;-62
2023/11/06 00:48:53;;;;;;;4.20;0.90;;;;;;;7.21;100.00;95843.75;5060837;28;20123;-62
2023/11/06 00:51:20;;;;;;;3.83;0.88;;;;;;;7.23;100.00;95837.00;5064798;28;20083;-63
2023/11/06 00:53:47;;;;;;;5.65;0.70;;;;;;;7.26;100.00;95849.16;5064900;28;20037;-63
2023/11/06 00:56:13;;;;;;;7.05;1.00;;;;;;;7.38;100.00;95851.59;5047085;28;20049;-62
2023/11/06 00:58:43;;;;;;;1.80;0.63;;;;;;;7.44;100.00;95847.78;5064055;28;20037;-62
2023/11/06 01:01:12;;;;;;;5.40;0.98;;;;;;;7.41;100.00;95859.91;5062126;28;20127;-63
2023/11/06 01:03:39;;;;;;;2.17;0.80;;;;;;;7.41;100.00;95856.44;5060988;28;20067;-63
2023/11/06 01:06:10;;;;;;;4.32;0.80;;;;;;;7.49;100.00;95855.88;5063460;28;20044;-64
2023/11/06 01:08:36;;;;;;;5.25;1.25;;;;;;;7.49;100.00;95863.94;5063740;28;20048;-63
2023/11/06 01:11:03;;;;;;;4.57;0.95;;;;;;;7.45;100.00;95875.53;5063972;28;20044;-64
2023/11/06 01:13:30;;;;;;;4.38;1.35;;;;;;;7.53;100.00;95864.25;5064390;28;20033;-63
2023/11/06 01:15:57;;;;;;;5.25;1.15;;;;;;;7.47;100.00;95871.50;5060605;28;20067;-63
2023/11/06 01:18:23;;;;;;;3.08;0.85;;;;;;;7.44;100.00;95874.72;5064755;28;20028;-63
2023/11/06 01:20:50;;;;;;;2.90;0.65;;;;;;;7.38;100.00;95879.28;5064293;28;20036;-63
2023/11/06 01:23:17;;;;;;;4.25;1.25;;;;;;;7.34;100.00;95872.81;5042652;28;20064;-63
2023/11/06 01:25:44;;;;;;;3.10;0.68;;;;;;;7.32;100.00;95882.25;5060048;28;20106;-63
2023/11/06 01:28:11;;;;;;;3.38;0.80;;;;;;;7.35;100.00;95885.25;5063071;28;20090;-63
2023/11/06 01:30:38;;;;;;;2.38;0.50;;;;;;;7.39;100.00;95885.50;5061704;28;20032;-63
2023/11/06 01:33:04;;;;;;;6.18;0.95;;;;;;;7.38;100.00;95882.00;5062984;28;20044;-63
2023/11/06 01:35:32;;;;;;;2.63;0.70;;;;;;;7.42;100.00;95891.16;5056918;28;20067;-64
2023/11/06 01:38:01;;;;;;;2.35;0.63;;;;;;;7.41;100.00;95896.81;5063153;28;20568;-63
2023/11/06 01:40:31;;;;;;;1.30;0.60;;;;;;;7.45;100.00;95899.78;5065347;28;20041;-63
2023/11/06 01:43:08;;;;;;;2.05;0.50;;;;;;;7.55;100.00;95897.09;5064414;28;20050;-62
2023/11/06 01:45:39;;;;;;;3.42;0.80;;;;;;;7.47;100.00;95884.16;5062951;28;20064;-63
2023/11/06 01:48:06;;;;;;;4.65;0.80;;;;;;;7.50;100.00;95889.81;5062268;28;20581;-62
2023/11/06 01:50:36;;;;;;;1.75;0.50;;;;;;;7.55;100.00;95900.59;5042845;28;20590;-63
2023/11/06 01:53:09;;;;;;;5.38;0.90;;;;;;;7.53;100.00;95897.34;5040637;28;20581;-60
2023/11/06 01:55:36;;;;;;;2.55;0.68;;;;;;;7.36;100.00;95897.63;5044940;28;20090;-59
2023/11/06 01:58:02;;;;;;;4.88;0.50;;;;;;;7.45;100.00;95897.09;5045279;28;20044;-60
2023/11/06 02:00:29;;;;;;;1.55;0.57;;;;;;;7.50;100.00;95907.88;5062516;28;20051;-60
2023/11/06 02:02:56;;;;;;;3.33;0.77;;;;;;;7.31;100.00;95900.31;5026679;28;20052;-60
2023/11/06 02:05:23;;;;;;;3.47;0.85;;;;;;;7.19;100.00;95891.69;5050296;28;20116;-60
2023/11/06 02:07:50;;;;;;;4.45;0.77;;;;;;;7.21;100.00;95903.78;5059864;28;20563;-60
2023/11/06 02:10:17;;;;;;;3.40;0.68;;;;;;;7.25;100.00;95910.25;5044391;28;20396;-61
2023/11/06 02:12:44;;;;;;;4.03;0.98;;;;;;;7.22;100.00;95910.00;5065189;28;20064;-59
2023/11/06 02:15:13;;;;;;;4.28;0.85;;;;;;;7.24;100.00;95919.41;5064417;28;20120;-60
2023/11/06 02:17:44;;;;;;;6.80;0.95;;;;;;;7.25;100.00;95915.66;5062516;28;20573;-61
2023/11/06 02:20:11;;;;;;;3.75;0.80;;;;;;;7.27;100.00;95908.09;5063448;28;20037;-60
2023/11/06 02:22:44;;;;;;;3.25;0.80;;;;;;;7.25;100.00;95904.06;5045263;28;20043;-60
2023/11/06 02:25:11;;;;;;;5.78;0.77;;;;;;;7.36;100.00;95916.47;5065278;28;20536;-61
2023/11/06 02:27:39;;;;;;;2.50;0.60;;;;;;;7.40;100.00;95922.94;5060443;28;20040;-60
2023/11/06 02:30:08;;;;;;;3.83;0.93;;;;;;;7.44;100.00;95919.72;5028748;28;20598;-60
2023/11/06 02:32:35;;;;;;;2.30;0.60;;;;;;;7.36;100.00;95921.84;5062292;28;20143;-60
2023/11/06 02:35:01;;;;;;;1.23;0.40;;;;;;;7.32;100.00;95926.16;5060806;28;20545;-61
2023/11/06 02:37:28;;;;;;;2.45;0.70;;;;;;;7.17;100.00;95932.31;5058007;28;20451;-60
2023/11/06 02:39:55;;;;;;;1.98;0.50;;;;;;;7.05;100.00;95929.88;5063279;28;20473;-60
2023/11/06 02:42:21;;;;;;;1.42;0.45;;;;;;;7.00;100.00;95936.03;5062594;28;20124;-60
2023/11/06 02:44:48;;;;;;;4.13;0.50;;;;;;;7.15;100.00;95932.56;5064953;28;20059;-60
2023/11/06 02:47:15;;;;;;;2.40;0.50;;;;;;;7.11;100.00;95931.50;5061364;28;20033;-60
2023/11/06 02:49:41;;;;;;;3.85;0.77;;;;;;;7.02;100.00;95930.38;5063172;28;20574;-60
2023/11/06 02:52:08;;;;;;;2.83;1.10;;;;;;;7.13;100.00;95940.13;5060953;28;20068;-61
2023/11/06 02:54:35;;;;;;;3.40;0.73;;;;;;;7.02;100.00;95941.97;5062579;28;20630;-60
2023/11/06 02:57:04;;;;;;;5.72;0.80;;;;;;;6.86;100.00;95951.06;5059878;28;20677;-61
2023/11/06 02:59:33;;;;;;;2.35;0.95;;;;;;;6.78;100.00;95952.34;5043807;28;20484;-60
2023/11/06 03:02:01;;;;;;;3.83;0.65;;;;;;;6.79;100.00;95956.69;5062088;28;20051;-61
2023/11/06 03:04:28;;;;;;;1.65;0.57;;;;;;;6.83;100.00;95965.03;5044052;28;20048;-60
2023/11/06 03:06:55;;;;;;;2.45;0.60;;;;;;;6.87;100.00;95974.19;5057259;28;20048;-60
2023/11/06 03:09:21;;;;;;;2.90;0.50;;;;;;;6.94;100.00;95979.34;5061622;28;20068;-61
2023/11/06 03:11:48;;;;;;;1.30;0.55;;;;;;;6.97;100.00;95984.19;5059284;28;20639;-60
2023/11/06 03:14:15;;;;;;;1.65;0.60;;;;;;;6.94;100.00;95979.34;5062147;28;20098;-61
2023/11/06 03:16:41;;;;;;;1.60;0.40;;;;;;;6.89;100.00;95980.13;5058620;28;20123;-63
2023/11/06 03:19:08;;;;;;;1.70;0.50;;;;;;;6.89;100.00;95982.81;5064058;28;20116;-62
2023/11/06 03:21:35;;;;;;;1.60;0.45;;;;;;;6.85;100.00;95981.72;5060160;28;20059;-63
2023/11/06 03:24:01;;;;;;;2.92;0.73;;;;;;;6.86;100.00;95997.59;5061229;28;20118;-63
2023/11/06 03:26:29;;;;;;;1.65;0.50;;;;;;;6.89;100.00;96007.03;5041701;28;20036;-62
2023/11/06 03:28:56;;;;;;;4.57;0.70;;;;;;;7.02;100.00;96011.13;5056628;28;20037;-62
2023/11/06 03:31:23;;;;;;;0.80;0.40;;;;;;;6.99;100.00;96012.47;5060702;28;20039;-62
2023/11/06 03:33:49;;;;;;;1.40;0.68;;;;;;;7.11;100.00;96014.13;5061988;28;20056;-62
2023/11/06 03:36:16;;;;;;;2.17;0.35;;;;;;;7.19;100.00;96020.88;5060340;28;20055;-63
2023/11/06 03:38:43;;;;;;;1.63;0.50;;;;;;;7.18;100.00;96032.75;5059576;28;20041;-63
2023/11/06 03:41:10;;;;;;;3.17;0.43;;;;;;;7.12;100.00;96039.97;5059940;28;20033;-63
2023/11/06 03:43:36;;;;;;;5.05;0.80;;;;;;;7.07;100.00;96042.66;5062726;28;20056;-64
2023/11/06 03:46:03;;;;;;;1.35;0.55;;;;;;;7.13;100.00;96042.41;5065980;28;20444;-62
2023/11/06 03:48:32;;;;;;;2.75;0.63;;;;;;;7.03;100.00;96045.03;5051539;28;20050;-64
2023/11/06 03:50:59;;;;;;;3.83;0.85;;;;;;;7.03;100.00;96053.13;5065335;28;20090;-63
2023/11/06 03:53:26;;;;;;;3.80;0.93;;;;;;;7.09;100.00;96049.38;5067576;28;20044;-64
2023/11/06 03:55:52;;;;;;;2.00;0.50;;;;;;;7.00;100.00;96065.22;5068747;28;20035;-64
2023/11/06 03:58:19;;;;;;;2.10;0.40;;;;;;;7.17;100.00;96069.59;5048020;28;20045;-62
2023/11/06 04:00:46;;;;;;;5.13;0.90;;;;;;;7.26;100.00;96069.94;5068297;28;20058;-63
2023/11/06 04:03:13;;;;;;;3.00;0.70;;;;;;;7.12;100.00;96069.59;5067319;28;20044;-62
2023/11/06 04:05:40;;;;;;;3.10;0.80;;;;;;;7.26;100.00;96078.00;5062078;28;20051;-63
2023/11/06 04:08:07;;;;;;;1.45;0.38;;;;;;;7.27;100.00;96087.69;5064261;28;20059;-63
2023/11/06 04:10:33;;;;;;;4.00;0.80;;;;;;;7.21;100.00;96084.16;5068010;28;20412;-63
2023/11/06 04:13:00;;;;;;;2.47;0.57;;;;;;;7.26;100.00;96099.53;5065091;28;20047;-63
2023/11/06 04:15:26;;;;;;;0.75;0.28;;;;;;;7.31;100.00;96087.97;5066049;28;20646;-63
2023/11/06 04:17:53;;;;;;;2.63;0.40;;;;;;;7.41;100.00;96102.28;5045882;28;20474;-64
2023/11/06 04:20:20;;;;;;;3.92;0.43;;;;;;;7.47;100.00;96103.13;5065131;28;20527;-63
2023/11/06 04:22:46;;;;;;;1.38;0.55;;;;;;;7.51;100.00;96098.00;5065765;28;20048;-63
2023/11/06 04:25:13;;;;;;;1.98;0.60;;;;;;;7.55;100.00;96104.50;5065535;28;20051;-64
2023/11/06 04:27:39;;;;;;;2.03;0.40;;;;;;;7.45;100.00;96107.97;5064470;28;20075;-63
2023/11/06 04:30:09;;;;;;;1.27;0.50;;;;;;;7.48;100.00;96103.94;5063760;28;20036;-62
2023/11/06 04:32:36;;;;;;;2.42;0.30;;;;;;;7.45;100.00;96104.47;5065353;28;20049;-63
2023/11/06 04:35:03;;;;;;;1.33;0.40;;;;;;;7.44;100.00;96105.53;5064015;28;20036;-63
2023/11/06 04:37:29;;;;;;;1.85;0.50;;;;;;;7.48;100.00;96103.94;5065420;28;20094;-63
2023/11/06 04:39:56;;;;;;;2.97;0.60;;;;;;;7.47;100.00;96097.72;5064959;28;20039;-63
2023/11/06 04:42:23;;;;;;;2.08;0.40;;;;;;;7.51;100.00;96093.44;5060471;28;20140;-64
2023/11/06 04:44:50;;;;;;;2.33;0.50;;;;;;;7.49;100.00;96100.97;5061997;28;20037;-63
2023/11/06 04:47:16;;;;;;;0.45;0.20;;;;;;;7.50;100.00;96107.16;5060453;28;20045;-62
2023/11/06 04:49:43;;;;;;;1.50;0.63;;;;;;;7.52;100.00;96103.13;5064851;28;20577;-62
2023/11/06 04:52:10;;;;;;;1.38;0.30;;;;;;;7.55;100.00;96108.00;5065062;28;20056;-63
2023/11/06 04:54:41;;;;;;;1.48;0.40;;;;;;;7.52;100.00;96116.59;5062609;28;20036;-59
2023/11/06 04:57:07;;;;;;;1.45;0.32;;;;;;;7.40;100.00;96116.81;5060691;28;20127;-60
2023/11/06 04:59:34;;;;;;;3.13;0.40;;;;;;;7.42;100.00;96116.56;5062169;28;20037;-61
2023/11/06 05:02:00;;;;;;;1.13;0.30;;;;;;;7.31;100.00;96123.78;5064264;28;20045;-63
2023/11/06 05:04:27;;;;;;;1.77;0.80;;;;;;;7.18;100.00;96126.97;5064729;28;20045;-60
2023/11/06 05:06:55;;;;;;;2.05;0.60;;;;;;;6.76;100.00;96130.19;5045629;28;20145;-61
2023/11/06 05:09:22;;;;;;;3.78;0.75;;;;;;;6.66;100.00;96132.78;5061708;28;20510;-61
2023/11/06 05:11:49;;;;;;;2.97;0.73;;;;;;;6.73;100.00;96130.72;5046789;28;20124;-61
2023/11/06 05:14:15;;;;;;;3.35;0.80;;;;;;;6.80;100.00;96133.16;5047834;28;21297;-61
2023/11/06 05:16:42;;;;;;;6.55;0.70;;;;;;;6.92;100.00;96140.25;5063961;28;20132;-60
2023/11/06 05:19:09;;;;;;;3.30;0.80;;;;;;;6.86;100.00;96144.78;5064202;28;20114;-60
2023/11/06 05:21:35;;;;;;;2.75;0.57;;;;;;;6.96;100.00;96141.38;5061688;28;20063;-61
2023/11/06 05:24:02;;;;;;;2.05;0.70;;;;;;;6.94;100.00;96136.25;5064149;28;20450;-61
2023/11/06 05:26:29;;;;;;;4.43;0.90;;;;;;;7.11;100.00;96132.56;5059460;28;20049;-62
2023/11/06 05:28:56;;;;;;;4.25;0.70;;;;;;;7.14;100.00;96140.94;5043765;28;20040;-61
2023/11/06 05:31:23;;;;;;;3.58;0.70;;;;;;;7.18;100.00;96146.59;5061010;28;20045;-61
2023/11/06 05:33:52;;;;;;;2.22;0.68;;;;;;;7.14;100.00;96146.31;5047715;28;20070;-62
2023/11/06 05:36:19;;;;;;;3.70;0.70;;;;;;;7.19;100.00;96152.81;5063789;28;20071;-61
2023/11/06 05:38:46;;;;;;;3.97;0.50;;;;;;;7.16;100.00;96154.13;5061608;28;20051;-62
2023/11/06 05:41:12;;;;;;;2.28;0.63;;;;;;;7.18;100.00;96159.25;5064480;28;20055;-64
2023/11/06 05:43:39;;;;;;;1.42;0.70;;;;;;;7.20;100.00;96155.25;5062812;28;20436;-60
2023/11/06 05:46:06;;;;;;;2.92;0.60;;;;;;;7.19;100.00;96160.88;5045175;28;20045;-62
2023/11/06 05:48:33;;;;;;;1.80;0.50;;;;;;;7.14;100.00;96173.22;5044936;28;20131;-62
2023/11/06 05:51:01;;;;;;;3.10;0.60;;;;;;;7.12;100.00;96180.75;5060233;28;20036;-61
2023/11/06 05:53:28;;;;;;;1.70;0.65;;;;;;;7.12;100.00;96180.75;5048413;28;20056;-60
2023/11/06 05:55:55;;;;;;;3.85;0.60;;;;;;;7.11;100.00;96181.03;5065087;28;20134;-62
2023/11/06 05:58:21;;;;;;;1.27;0.45;;;;;;;7.11;100.00;96191.78;5060741;28;20060;-62
2023/11/06 06:00:48;;;;;;;3.08;0.55;;;;;;;7.08;100.00;96190.41;5066567;28;20040;-62
2023/11/06 06:03:20;;;;;;;1.17;0.52;;;;;;;6.99;100.00;96194.66;5062141;28;20050;-62
2023/11/06 06:05:47;;;;;;;3.65;0.57;;;;;;;6.99;100.00;96194.66;5042920;28;20135;-61
2023/11/06 06:08:15;;;;;;;2.55;0.50;;;;;;;6.93;100.00;96204.56;5062005;28;20101;-61
2023/11/06 06:10:42;;;;;;;4.85;0.65;;;;;;;6.84;100.00;96206.94;5042435;28;20098;-64
2023/11/06 06:13:08;;;;;;;7.38;0.88;;;;;;;6.72;100.00;96209.78;5060777;28;20123;-63
2023/11/06 06:15:35;;;;;;;1.65;0.50;;;;;;;6.61;100.00;96211.59;5063934;28;20068;-63
2023/11/06 06:18:01;;;;;;;1.95;0.80;;;;;;;6.64;100.00;96218.31;5058895;28;20048;-63
2023/11/06 06:20:28;;;;;;;2.63;0.50;;;;;;;6.75;100.00;96213.84;5060660;28;20059;-62
2023/11/06 06:22:55;;;;;;;4.07;0.60;;;;;;;6.73;100.00;96210.59;5056624;28;20115;-63
2023/11/06 06:25:22;;;;;;;4.05;0.55;;;;;;;6.74;100.00;96212.22;5042657;28;20121;-62
2023/11/06 06:27:49;;;;;;;3.42;0.75;;;;;;;6.72;100.00;96214.34;5044048;28;20163;-62
2023/11/06 06:30:16;;;;;;;0.70;0.30;;;;;;;6.55;100.00;96215.28;5062185;28;20052;-63
2023/11/06 06:32:43;;;;;;;1.30;0.50;;;;;;;6.50;100.00;96221.41;5055951;28;20246;-62
2023/11/06 06:35:10;;;;;;;3.92;1.25;;;;;;;6.34;100.00;96222.34;5041880;28;20051;-62
2023/11/06 06:37:37;;;;;;;3.47;0.88;;;;;;;6.10;100.00;96231.50;5059882;28;20040;-63
2023/11/06 06:40:07;;;;;;;3.72;0.77;;;;;;;5.99;100.00;96224.34;5058121;28;20044;-63
2023/11/06 06:42:34;;;;;;;5.40;1.02;;;;;;;5.73;100.00;96235.59;5039692;28;20052;-63
2023/11/06 06:45:01;;;;;;;3.85;1.17;;;;;;;5.57;100.00;96233.75;5058955;28;20044;-63
2023/11/06 06:47:28;;;;;;;3.40;1.00;;;;;;;5.42;100.00;96245.91;5060046;28;20060;-63
2023/11/06 06:49:54;;;;;;;2.15;0.82;;;;;;;5.32;100.00;96245.75;5060162;28;20040;-64
2023/11/06 06:52:21;;;;;;;4.18;0.90;;;;;;;5.21;100.00;96242.91;5057621;28;20090;-63
2023/11/06 06:54:48;;;;;;;2.78;1.02;;;;;;;5.15;100.00;96246.59;5063091;28;20125;-63
2023/11/06 06:57:15;;;;;;;2.50;0.82;;;;;;;5.14;100.00;96247.66;5055853;28;20033;-63
2023/11/06 06:59:41;;;;;;;4.78;1.00;;;;;;;5.19;100.00;96260.31;5042271;28;20052;-63
2023/11/06 07:02:08;;;;;;;4.97;1.13;;;;;;;5.20;100.00;96270.81;5059171;28;20584;-63
2023/11/06 07:04:37;;;;;;;3.75;0.80;;;;;;;5.24;100.00;96267.63;5059869;28;20041;-63
2023/11/06 07:07:06;;;;;;;5.88;1.20;;;;;;;5.27;100.00;96272.53;5057696;28;20056;-62
2023/11/06 07:09:33;;;;;;;5.63;1.25;;;;;;;5.42;100.00;96275.44;5058258;28;20047;-62
2023/11/06 07:12:02;;;;;;;6.10;0.90;;;;;;;5.56;100.00;96281.28;5058790;28;20040;-63
2023/11/06 07:14:30;;;;;;;2.47;0.80;;;;;;;5.71;100.00;96288.72;5058201;28;20041;-62
2023/11/06 07:17:04;;;;;;;4.47;1.30;;;;;;;5.84;100.00;96289.44;5058213;28;20068;-62
2023/11/06 07:19:31;;;;;;;3.53;1.17;;;;;;;5.97;100.00;96302.50;5060075;28;20047;-63
2023/11/06 07:21:59;;;;;;;3.08;1.10;;;;;;;5.94;100.00;96291.47;5056278;28;20101;-62
2023/11/06 07:24:28;;;;;;;5.22;1.05;;;;;;;6.02;100.00;96307.16;5059527;28;20048;-63
2023/11/06 07:26:55;;;;;;;2.58;1.00;;;;;;;6.02;100.00;96298.25;5055833;28;20047;-62
2023/11/06 07:29:23;;;;;;;6.18;1.30;;;;;;;6.03;100.00;96300.75;5058967;28;20580;-62
2023/11/06 07:31:52;;;;;;;3.53;1.00;;;;;;;6.11;100.00;96304.84;5059203;28;20086;-63
2023/11/06 07:34:20;;;;;;;2.13;0.80;;;;;;;6.21;100.00;96307.69;5018454;28;1105079;-62
2023/11/06 07:36:50;;;;;;;2.10;0.73;;;;;;;6.30;100.00;96299.97;5062282;28;20589;-63
2023/11/06 07:39:17;;;;;;;1.95;0.65;;;;;;;6.50;100.00;96303.97;5062592;28;20706;-62
2023/11/06 07:41:45;;;;;;;1.42;0.65;;;;;;;6.59;100.00;96312.41;5063333;28;20037;-62
2023/11/06 07:44:15;;;;;;;2.95;0.82;;;;;;;6.61;100.00;96313.78;5063604;28;20535;-63
2023/11/06 07:46:43;;;;;;;5.15;0.52;;;;;;;6.66;100.00;96301.47;5060658;28;20044;-63
2023/11/06 07:49:09;;;;;;;2.45;0.57;;;;;;;6.73;100.00;96308.25;5062913;28;20051;-62
2023/11/06 07:51:36;;;;;;;2.45;0.60;;;;;;;6.79;100.00;96306.44;5047199;28;20526;-62
2023/11/06 07:54:03;;;;;;;0.98;0.43;;;;;;;6.87;100.00;96307.84;5043975;28;20129;-62
2023/11/06 07:56:29;;;;;;;2.25;0.88;;;;;;;6.94;100.00;96313.03;5061249;28;20041;-62
2023/11/06 07:58:56;;;;;;;1.48;0.68;;;;;;;7.08;100.00;96316.91;5060415;28;20436;-63
2023/11/06 08:01:22;;;;;;;2.85;0.55;;;;;;;7.13;100.00;96318.84;5061055;28;20029;-63
2023/11/06 08:03:49;;;;;;;4.47;0.77;;;;;;;7.18;100.00;96313.50;5060095;28;20040;-63
2023/11/06 08:06:16;;;;;;;2.75;0.70;;;;;;;7.27;100.00;96324.63;5061618;28;20032;-63
2023/11/06 08:08:43;;;;;;;2.95;0.70;;;;;;;7.40;100.00;96328.75;5044405;28;20036;-62
2023/11/06 08:11:09;;;;;;;1.38;0.50;;;;;;;7.47;100.00;96320.47;5058927;28;20452;-62
2023/11/06 08:13:36;;;;;;;2.75;0.70;;;;;;;7.54;100.00;96329.16;5061886;28;20055;-62
2023/11/06 08:16:03;;;;;;;2.15;0.52;;;;;;;7.56;100.00;96337.78;5060868;28;20128;-62
2023/11/06 08:18:32;;;;;;;2.40;0.63;;;;;;;7.57;100.00;96336.72;5059868;28;20060;-63
2023/11/06 08:21:00;;;;;;;2.17;0.70;;;;;;;7.66;100.00;96340.56;5058162;28;20033;-62
2023/11/06 08:23:27;;;;;;;4.30;0.90;;;;;;;7.73;100.00;96348.41;5059412;28;20072;-63
2023/11/06 08:25:54;;;;;;;2.10;0.63;;;;;;;7.80;100.00;96346.31;5056729;28;20454;-63
2023/11/06 08:28:21;;;;;;;2.97;0.77;;;;;;;7.88;100.00;96349.56;5059111;28;20048;-63
2023/11/06 08:30:50;;;;;;;4.82;1.00;;;;;;;8.06;100.00;96351.84;5043498;28;20139;-63
2023/11/06 08:33:17;;;;;;;4.47;0.90;;;;;;;8.09;100.00;96353.22;5042016;28;20063;-63
2023/11/06 08:35:45;;;;;;;2.08;0.75;;;;;;;8.15;100.00;96354.84;5061266;28;20408;-63
2023/11/06 08:38:12;;;;;;;1.27;0.55;;;;;;;8.20;100.00;96346.81;5063521;28;20074;-63
2023/11/06 08:40:39;;;;;;;5.28;0.90;;;;;;;8.30;100.00;96351.44;5062953;28;20531;-64
2023/11/06 08:43:06;;;;;;;2.97;0.75;;;;;;;8.38;100.00;96362.78;5029316;28;20036;-63
2023/11/06 08:45:33;;;;;;;1.70;0.70;;;;;;;8.45;100.00;96356.06;5044289;28;20049;-63
2023/11/06 08:47:59;;;;;;;4.97;1.00;;;;;;;8.55;100.00;96358.03;5061149;28;20040;-64
2023/11/06 08:50:29;;;;;;;3.17;0.80;;;;;;;8.67;100.00;96363.19;5044358;28;20156;-62
2023/11/06 08:52:56;;;;;;;1.95;0.50;;;;;;;8.83;100.00;96365.97;5062413;28;20044;-62
2023/11/06 08:55:23;;;;;;;2.95;0.50;;;;;;;9.03;100.00;96373.31;5061866;28;20044;-63
2023/11/06 08:57:49;;;;;;;4.25;0.90;;;;;;;9.16;100.00;96363.88;5058768;28;20044;-63
2023/11/06 09:00:16;;;;;;;3.25;0.90;;;;;;;9.21;100.00;96379.28;5061683;28;20496;-62
2023/11/06 09:02:43;;;;;;;1.95;0.75;;;;;;;9.17;100.00;96370.09;5061148;28;20056;-62
2023/11/06 09:05:12;;;;;;;2.97;0.70;;;;;;;9.17;100.00;96379.00;5062570;28;20125;-62
2023/11/06 09:07:39;;;;;;;2.72;1.02;;;;;;;9.12;100.00;96379.00;5062199;28;20048;-63
2023/11/06 09:10:06;;;;;;;2.78;0.80;;;;;;;9.05;100.00;96381.97;5057803;28;20128;-63
2023/11/06 09:12:34;;;;;;;4.50;0.80;;;;;;;9.12;100.00;96384.41;5061665;28;20045;-62
2023/11/06 09:15:00;;;;;;;2.88;0.75;;;;;;;9.22;100.00;96380.91;5062205;28;20044;-62
2023/11/06 09:17:27;;;;;;;3.17;0.90;;;;;;;9.17;100.00;96387.09;5043668;28;20101;-62
2023/11/06 09:19:54;;;;;;;4.07;0.77;;;;;;;9.17;100.00;96389.81;5044617;28;20048;-62
2023/11/06 09:22:21;;;;;;;1.42;0.55;;;;;;;9.25;100.00;96393.88;5062626;28;20056;-64
2023/11/06 09:24:48;;;;;;;1.70;0.73;;;;;;;9.42;100.00;96390.13;5059609;28;20044;-62
2023/11/06 09:27:15;;;;;;;3.40;0.85;;;;;;;9.50;100.00;96392.28;5059219;28;20041;-62
2023/11/06 09:29:41;;;;;;;4.25;0.70;;;;;;;9.62;100.00;96398.22;5062063;28;20048;-62
2023/11/06 09:32:08;;;;;;;5.75;0.80;;;;;;;9.69;100.00;96403.38;5058674;28;20048;-62
2023/11/06 09:34:37;;;;;;;1.55;0.60;;;;;;;9.83;100.00;96406.34;5061134;28;20127;-62
2023/11/06 09:37:04;;;;;;;3.72;0.57;;;;;;;9.88;100.00;96408.25;5043165;28;20048;-62
2023/11/06 09:39:31;;;;;;;2.60;0.40;;;;;;;9.89;100.00;96407.16;5060528;28;20039;-63
2023/11/06 09:41:58;;;;;;;2.15;0.65;;;;;;;10.01;100.00;96402.28;5059422;28;20036;-62
2023/11/06 09:44:24;;;;;;;1.92;1.02;;;;;;;10.07;100.00;96404.97;5060292;28;20115;-62
2023/11/06 09:46:51;;;;;;;1.38;0.50;;;;;;;10.13;100.00;96412.81;5061668;28;20154;-62
2023/11/06 09:49:26;;;;;;;2.88;0.60;;;;;;;10.19;100.00;96402.81;5059364;28;20048;-62
2023/11/06 09:51:53;;;;;;;2.83;0.60;;;;;;;10.22;100.00;96401.44;5040379;28;20496;-62
2023/11/06 09:54:20;;;;;;;3.42;0.57;;;;;;;10.18;100.00;96403.91;5060745;28;20056;-62
2023/11/06 09:56:47;;;;;;;3.08;0.70;;;;;;;10.19;100.00;96399.28;5060765;28;20537;-62
2023/11/06 09:59:16;;;;;;;1.23;0.35;;;;;;;10.20;100.00;96407.13;5060980;28;20045;-63
2023/11/06 10:01:43;;;;;;;4.20;0.65;;;;;;;10.27;100.00;96412.25;5058803;28;20071;-62
2023/11/06 10:04:09;;;;;;;2.80;0.40;;;;;;;10.43;99.75;96415.72;5058253;28;20044;-63
2023/11/06 10:06:37;;;;;;;2.88;0.60;;;;;;;10.45;100.00;96416.31;5061595;28;20051;-62
2023/11/06 10:09:24;;;;;;;3.75;0.70;;;;;;;10.53;100.00;96418.44;5062070;28;20062;-63
2023/11/06 10:11:52;;;;;;;2.47;0.52;;;;;;;10.52;99.49;96414.13;5058898;28;20298;-63
2023/11/06 10:14:18;;;;;;;1.23;0.30;;;;;;;10.51;98.17;96409.78;5059108;28;20045;-63
2023/11/06 10:16:45;;;;;;;2.33;0.40;;;;;;;10.57;99.44;96409.78;5061343;28;20115;-63
2023/11/06 10:19:14;;;;;;;1.50;0.30;;;;;;;10.64;100.00;96410.28;5060444;28;20713;-63
2023/11/06 10:21:41;;;;;;;1.17;0.65;;;;;;;10.74;98.89;96404.84;5061276;28;20032;-63
2023/11/06 10:24:11;;;;;;;3.50;0.60;;;;;;;10.71;100.00;96409.97;5059272;28;20040;-63
2023/11/06 10:26:38;;;;;;;0.98;0.43;;;;;;;10.83;95.19;96410.47;5059638;28;20044;-62
2023/11/06 10:29:18;;;;;;;2.70;0.50;;;;;;;10.96;96.45;96400.13;5060952;28;20056;-62
2023/11/06 10:31:48;;;;;;;2.17;0.50;;;;;;;11.08;94.56;96410.63;5061312;28;20048;-62
2023/11/06 10:34:37;;;;;;;1.23;0.22;;;;;;;11.02;94.69;96394.41;5061238;28;20051;-63
2023/11/06 10:37:14;;;;;;;0.45;0.20;;;;;;;10.99;95.09;96397.66;5056851;28;20121;-63
2023/11/06 10:39:50;;;;;;;6.28;0.80;;;;;;;10.92;94.90;96394.47;5038078;28;20033;-63
2023/11/06 10:42:19;;;;;;;2.28;1.08;;;;;;;10.89;94.48;96403.16;5060332;28;20613;-62
2023/11/06 10:44:55;;;;;;;1.77;0.43;;;;;;;10.62;95.89;96404.34;5058342;28;20044;-62
2023/11/06 10:47:25;;;;;;;2.17;0.50;;;;;;;10.69;97.86;96402.13;5058392;28;20828;-62
2023/11/06 10:50:03;;;;;;;2.33;0.40;;;;;;;10.74;97.98;96396.72;5056636;28;20098;-62
2023/11/06 10:52:34;;;;;;;1.92;0.43;;;;;;;10.70;99.21;96395.66;5045202;28;20037;-62
2023/11/06 10:55:06;;;;;;;2.22;0.52;;;;;;;10.70;98.28;96392.13;5060658;28;20062;-62
2023/11/06 10:57:50;;;;;;;1.75;0.50;;;;;;;10.78;96.88;96396.97;5043837;28;20716;-62
2023/11/06 11:00:21;;;;;;;2.28;0.68;;;;;;;10.74;96.70;96394.03;5058717;28;20051;-63
2023/11/06 11:02:55;;;;;;;2.20;0.55;;;;;;;10.75;98.05;96401.03;5058528;28;20052;-63
2023/11/06 11:05:24;;;;;;;2.92;0.70;;;;;;;10.71;97.75;96401.88;5060038;28;20538;-63
2023/11/06 11:07:53;;;;;;;1.50;0.40;;;;;;;10.71;93.73;96393.75;5058729;28;20261;-62
2023/11/06 11:10:22;;;;;;;2.15;0.63;;;;;;;10.62;95.12;96398.94;5060885;28;20044;-63
2023/11/06 11:12:52;;;;;;;1.70;0.40;;;;;;;10.61;94.93;96408.16;5044164;28;20419;-62
2023/11/06 11:15:25;;;;;;;2.50;0.50;;;;;;;10.68;95.85;96391.59;5060036;28;20098;-62
2023/11/06 11:17:59;;;;;;;1.40;0.50;;;;;;;10.67;95.06;96404.31;5059069;28;20039;-62
2023/11/06 11:20:55;;;;;;;0.98;0.35;;;;;;;10.66;94.60;96394.59;5058250;28;20082;-63
2023/11/06 11:23:46;;;;;;;1.20;0.40;;;;;;;10.63;95.84;96395.13;5062046;28;20055;-63
2023/11/06 11:26:13;;;;;;;1.40;0.47;;;;;;;10.60;96.65;96399.22;5059386;28;20075;-63
2023/11/06 11:28:57;;;;;;;2.05;0.50;;;;;;;10.57;96.31;96401.66;5060013;28;20041;-62
2023/11/06 11:31:43;;;;;;;0.60;0.25;;;;;;;10.56;95.97;96394.59;5061649;28;20028;-62
2023/11/06 11:34:33;;;;;;;2.08;0.60;;;;;;;10.56;95.19;96402.72;5058574;28;20115;-62
2023/11/06 11:37:25;;;;;;;2.33;0.40;;;;;;;10.58;94.02;96403.28;5059572;28;20040;-62
2023/11/06 11:39:55;;;;;;;1.02;0.40;;;;;;;10.50;96.14;96404.63;5058569;28;20044;-63